Edwards Air Force Base
KEDW : now visible

Airfield :











YOU CAN JOIN US ON...

 
LOGIN :

Register | Disclaimer

   EN    FR    IT 

 









Legend :    VFR   Marginal VFR   IFR   Intensive IFR   Very Intensive IFR
Visi :
Ceiling :
>= 8 km
>= 3000ft
5 to 8 km
1000 to 3000 ft
1500m to 5 km
500 to 1000 ft
800 to 1500m
200 to 500 ft
< 800m
< 200 ft
Symbols :   Thunderstorms  Fog  Heavy snow  Heavy precipitations  Wind > 20 kt






- Airport Elevation : 2312 ft


KEDW - Edwards Air Force Base

CURRENT METAR :
  • 090915Z AUTO 00000KT 10SM FEW080 BKN100 05/04 A3003 RMK AO2 RAE15 SLP171

EXPIRED METARs :
  • 090858Z AUTO 00000KT 10SM -RA BKN090 05/04 A3002 RMK AO2 RAB56 SLP167 P0000 60000 T00530039 52010
  • 090758Z AUTO 00000KT 10SM SCT075 OVC110 05/03 A3002 RMK AO2 SLP167 T00470034 401350045
  • 090743Z AUTO 18003KT 10SM BKN075 BKN110 05/03 A3002 RMK AO2 SLP167
  • 090658Z AUTO 24004KT 10SM SCT060 06/04 A3001 RMK AO2 SLP162 T00560036

Expired Forecast.



MET'MAP, your aeronautical weather chart ! - Copyright ORBIFLY December 2007 - Disclaimer

ORBIFLY MET'MAP TEAM :

Programming & Development : Alexandra Zaïnal
Concept & original design : Baudouin d'Aumeries
Assistance for programming : Marc-Olivier Méhu
Technical & hardware support : Manuel Goepfert

Contact : metmap@orbifly.com




SOURCES & CREDITS :

   NOAA       Earth
Advisory